Evergreen, Colorado
Current Conditions -  °F | °C
As of 5:14 PM on Wednesday 28 Jan 2015 (Local Time) from KBJC Reporting Station
Scattered Clouds Scattered Clouds  
Wind Chill: 52°   Ceiling: Unl
Heat Index: 52°   Visibility: 40mi
Dew Point: 18°   Wind: 8mph
Humidity: 26%   Direction: 270°W
Pressure: 30.14"   Gusts: NA
Location:  39.63°N, 105.31°W
Report Text: KBJC 290014Z 27007KT 40SM FEW070 FEW140 SCT200 11/M08 A3014
Loading
Personal Weather Stations






























Interactive Weather Map New forecast layout! Learn more

10-Day Weather Forecast

Advertisements
Track Severe Weather on mobile